createdAt,value
2022-09-09T00:02:25.442Z,96.14
2022-09-09T00:05:39.715Z,95.92
2022-09-09T00:08:53.578Z,95.80
2022-09-09T00:12:07.390Z,95.72
2022-09-09T00:15:18.043Z,96.00
2022-09-09T00:18:32.595Z,95.94
2022-09-09T00:21:40.904Z,96.06
2022-09-09T00:24:50.110Z,96.20
2022-09-09T00:27:59.159Z,96.22
2022-09-09T00:31:17.043Z,96.02
2022-09-09T00:34:27.367Z,96.23
2022-09-09T00:37:36.320Z,96.44
2022-09-09T00:40:50.035Z,96.37
2022-09-09T00:44:07.399Z,96.38
2022-09-09T00:47:31.389Z,96.41
2022-09-09T00:50:51.021Z,96.44
2022-09-09T00:54:20.032Z,96.52
2022-09-09T00:57:32.381Z,97.04
2022-09-09T01:00:46.154Z,96.87
2022-09-09T01:04:00.712Z,96.79
2022-09-09T01:07:17.555Z,96.75
2022-09-09T01:10:33.272Z,96.36
2022-09-09T01:13:40.547Z,96.40
2022-09-09T01:16:52.810Z,95.99
2022-09-09T01:20:08.630Z,95.75
2022-09-09T01:23:50.599Z,95.79
2022-09-09T01:27:10.183Z,95.50
2022-09-09T01:30:20.211Z,95.20
2022-09-09T01:33:26.940Z,95.05
2022-09-09T01:36:39.693Z,94.85
2022-09-09T01:39:48.947Z,94.38
2022-09-09T01:43:00.879Z,94.04
2022-09-09T01:46:08.706Z,93.98
2022-09-09T01:49:17.132Z,93.83
2022-09-09T01:52:23.389Z,93.88
2022-09-09T01:55:34.353Z,93.92
2022-09-09T01:58:55.345Z,94.39
2022-09-09T02:02:14.274Z,94.35
2022-09-09T02:05:35.813Z,94.31
2022-09-09T02:08:50.146Z,94.50
2022-09-09T02:12:03.520Z,95.13
2022-09-09T02:15:33.925Z,94.90
2022-09-09T02:18:46.913Z,95.04
2022-09-09T02:21:55.298Z,95.30
2022-09-09T02:25:04.266Z,95.51
2022-09-09T02:28:13.990Z,95.33
2022-09-09T02:31:24.318Z,95.45
2022-09-09T02:34:37.332Z,95.26
2022-09-09T02:37:47.245Z,95.41
2022-09-09T02:40:55.419Z,95.28
2022-09-09T02:44:03.551Z,95.43
2022-09-09T02:47:31.758Z,95.41
2022-09-09T02:50:55.205Z,95.29
2022-09-09T02:54:11.743Z,95.37
2022-09-09T02:57:23.647Z,95.44
2022-09-09T03:00:32.547Z,95.13
2022-09-09T03:03:45.421Z,94.90
2022-09-09T03:06:55.873Z,95.36
2022-09-09T03:10:04.347Z,95.10
2022-09-09T03:13:11.147Z,94.84
2022-09-09T03:16:19.159Z,94.82
2022-09-09T03:19:32.493Z,94.91
2022-09-09T03:22:39.328Z,94.82
2022-09-09T03:25:51.200Z,95.03
2022-09-09T03:29:03.751Z,94.62
2022-09-09T03:32:11.920Z,94.27
2022-09-09T03:35:21.531Z,94.09
2022-09-09T03:38:29.704Z,94.44
2022-09-09T03:41:35.585Z,94.52
2022-09-09T03:44:43.116Z,94.50
2022-09-09T03:47:50.285Z,94.57
2022-09-09T03:51:04.029Z,94.63
2022-09-09T03:54:11.830Z,94.73
2022-09-09T03:57:19.519Z,94.91
2022-09-09T04:00:25.492Z,95.14
2022-09-09T04:03:34.065Z,95.03
2022-09-09T04:06:43.350Z,95.06
2022-09-09T04:09:50.874Z,95.02
2022-09-09T04:12:57.827Z,95.26
2022-09-09T04:16:06.721Z,95.55
2022-09-09T04:19:14.903Z,95.17
2022-09-09T04:22:26.167Z,95.03
2022-09-09T04:25:34.298Z,95.31
2022-09-09T04:28:41.655Z,95.20
2022-09-09T04:31:55.394Z,95.24
2022-09-09T04:35:03.790Z,95.17
2022-09-09T04:38:12.686Z,95.21
2022-09-09T04:41:20.753Z,95.13
2022-09-09T04:44:29.796Z,95.28
2022-09-09T04:47:37.166Z,95.26
2022-09-09T04:50:44.109Z,95.09
2022-09-09T04:53:55.717Z,95.22
2022-09-09T04:57:03.511Z,95.01
2022-09-09T05:00:12.495Z,95.40
2022-09-09T05:03:20.493Z,94.98
2022-09-09T05:06:27.895Z,94.96
2022-09-09T05:09:40.577Z,94.56
2022-09-09T05:12:55.816Z,94.76
2022-09-09T05:16:07.229Z,94.43
2022-09-09T05:19:14.509Z,94.41
2022-09-09T05:22:27.651Z,93.98
2022-09-09T05:25:37.395Z,94.06
2022-09-09T05:28:45.395Z,93.64
2022-09-09T05:31:52.663Z,93.84
2022-09-09T05:35:00.697Z,93.49
2022-09-09T05:38:09.583Z,93.45
2022-09-09T05:41:19.648Z,93.49
2022-09-09T05:44:28.828Z,93.25
2022-09-09T05:47:34.825Z,93.28
2022-09-09T05:50:41.766Z,93.02
2022-09-09T05:53:49.049Z,92.91
2022-09-09T05:56:58.696Z,92.76
2022-09-09T06:00:07.023Z,92.13
2022-09-09T06:03:24.778Z,92.01
2022-09-09T06:06:38.027Z,92.30
2022-09-09T06:09:51.792Z,92.69
2022-09-09T06:13:00.429Z,92.61
2022-09-09T06:16:10.301Z,92.81
2022-09-09T06:19:16.558Z,92.05
2022-09-09T06:22:23.434Z,92.12
2022-09-09T06:25:29.831Z,91.84
2022-09-09T06:28:40.513Z,91.20
2022-09-09T06:31:46.705Z,90.91
2022-09-09T06:34:56.437Z,90.47
2022-09-09T06:38:03.751Z,89.58
2022-09-09T06:41:13.478Z,89.45
2022-09-09T06:44:24.336Z,88.16
2022-09-09T06:47:34.881Z,88.33
2022-09-09T06:50:41.231Z,87.86
2022-09-09T06:53:50.321Z,87.54
2022-09-09T06:56:56.793Z,87.41
2022-09-09T07:00:12.547Z,87.22
2022-09-09T07:03:19.814Z,86.43
2022-09-09T07:06:28.568Z,86.27
2022-09-09T07:09:34.464Z,85.31
2022-09-09T07:12:41.467Z,85.13
2022-09-09T07:15:52.751Z,84.36
2022-09-09T07:19:03.553Z,83.40
2022-09-09T07:22:10.038Z,83.81
2022-09-09T07:25:19.171Z,84.03
2022-09-09T07:28:27.505Z,83.52
2022-09-09T07:31:39.411Z,82.60
2022-09-09T07:34:51.431Z,82.54
2022-09-09T07:37:59.499Z,82.44
2022-09-09T07:41:12.824Z,80.82
2022-09-09T07:44:22.763Z,79.89
2022-09-09T07:47:42.448Z,78.66
2022-09-09T07:50:49.649Z,78.20
2022-09-09T07:53:58.945Z,79.06
2022-09-09T07:57:07.701Z,78.49
2022-09-09T08:00:17.294Z,77.27
2022-09-09T08:03:31.939Z,77.16
2022-09-09T08:06:41.893Z,77.34
2022-09-09T08:09:50.542Z,77.44
2022-09-09T08:13:19.709Z,75.47
2022-09-09T08:16:31.199Z,73.30
2022-09-09T08:19:41.073Z,73.94
2022-09-09T08:22:53.321Z,73.02
2022-09-09T08:25:59.572Z,73.57
2022-09-09T08:29:08.962Z,73.66
2022-09-09T08:32:14.803Z,72.41
2022-09-09T08:35:24.445Z,72.47
2022-09-09T08:38:30.671Z,70.45
2022-09-09T08:42:07.823Z,71.81
2022-09-09T08:45:54.179Z,70.34
2022-09-09T08:49:07.036Z,71.15
2022-09-09T08:52:26.043Z,71.01
2022-09-09T08:55:44.055Z,69.52
2022-09-09T08:58:52.982Z,68.96
2022-09-09T09:02:29.879Z,68.77
2022-09-09T09:05:42.621Z,68.69
2022-09-09T09:09:04.537Z,68.39
2022-09-09T09:12:20.231Z,66.91
2022-09-09T09:15:32.158Z,65.90
2022-09-09T09:18:38.965Z,65.74
2022-09-09T09:21:52.039Z,63.92
2022-09-09T09:25:11.827Z,64.22
2022-09-09T09:28:28.588Z,64.59
2022-09-09T09:31:40.035Z,63.85
2022-09-09T09:34:52.416Z,62.03
2022-09-09T09:41:40.191Z,62.64
2022-09-09T09:44:48.163Z,61.11
2022-09-09T09:48:08.062Z,59.25
2022-09-09T09:51:20.542Z,60.78
2022-09-09T09:54:32.971Z,60.31
2022-09-09T09:57:45.958Z,57.84
2022-09-09T10:00:55.718Z,59.15
2022-09-09T10:04:21.443Z,57.76
2022-09-09T10:07:31.195Z,55.62
2022-09-09T10:11:00.201Z,57.34
2022-09-09T10:14:23.579Z,59.63
2022-09-09T10:17:39.835Z,58.56
2022-09-09T10:20:55.405Z,56.47
2022-09-09T10:24:22.125Z,57.91
2022-09-09T10:27:38.140Z,56.51
2022-09-09T10:30:59.480Z,56.62
2022-09-09T10:34:23.075Z,55.53
2022-09-09T10:37:45.539Z,56.20
2022-09-09T10:41:20.751Z,58.31
2022-09-09T10:44:38.533Z,57.58
2022-09-09T10:48:10.339Z,55.92
2022-09-09T10:51:37.359Z,56.83
2022-09-09T10:54:58.366Z,57.63
2022-09-09T10:58:07.843Z,56.70
2022-09-09T11:01:20.197Z,56.72
2022-09-09T11:04:36.862Z,56.57
2022-09-09T11:07:47.301Z,56.68
2022-09-09T11:10:58.027Z,53.77
2022-09-09T11:14:09.782Z,54.34
2022-09-09T11:17:20.913Z,54.64
2022-09-09T11:20:30.748Z,55.15
2022-09-09T11:23:45.105Z,55.77
2022-09-09T11:26:56.163Z,55.00
2022-09-09T11:34:09.659Z,55.03
2022-09-09T11:37:39.314Z,54.25
2022-09-09T11:40:46.147Z,54.58
2022-09-09T11:43:55.122Z,51.11
2022-09-09T11:47:03.520Z,51.07
2022-09-09T11:50:33.328Z,52.64
2022-09-09T11:53:52.738Z,51.72
2022-09-09T11:56:58.651Z,50.58
2022-09-09T12:00:08.541Z,51.24
2022-09-09T12:03:46.606Z,50.23
2022-09-09T12:06:57.836Z,50.24
2022-09-09T12:10:09.388Z,52.41
2022-09-09T12:13:21.276Z,52.27
2022-09-09T12:16:37.731Z,52.50
2022-09-09T12:19:44.808Z,52.41
2022-09-09T12:23:17.320Z,53.11
2022-09-09T12:26:35.719Z,51.62
2022-09-09T12:29:51.906Z,52.64
2022-09-09T12:33:06.590Z,52.71
2022-09-09T12:36:17.813Z,51.18
2022-09-09T12:39:32.211Z,52.26
2022-09-09T12:42:45.014Z,52.02
2022-09-09T12:45:58.900Z,51.82
2022-09-09T12:49:07.710Z,51.27
2022-09-09T12:52:22.607Z,50.31
2022-09-09T12:55:32.114Z,49.21
2022-09-09T12:58:43.676Z,50.65
2022-09-09T13:01:59.916Z,50.52
2022-09-09T13:05:20.727Z,50.48
2022-09-09T13:08:28.458Z,50.01
2022-09-09T13:11:40.238Z,50.05
2022-09-09T13:14:52.521Z,50.73
2022-09-09T13:18:03.543Z,50.40
2022-09-09T13:21:09.855Z,50.66
2022-09-09T13:24:31.351Z,50.56
2022-09-09T13:27:40.120Z,50.38
2022-09-09T13:31:04.327Z,49.69
2022-09-09T13:34:17.303Z,50.17
2022-09-09T13:37:28.844Z,50.24
2022-09-09T13:40:35.685Z,50.17
2022-09-09T13:43:48.557Z,50.13
2022-09-09T13:47:10.789Z,50.38
2022-09-09T13:50:25.239Z,49.89
2022-09-09T13:53:31.740Z,49.33
2022-09-09T13:56:38.783Z,49.97
2022-09-09T14:00:03.624Z,48.68
2022-09-09T14:03:15.241Z,49.34
2022-09-09T14:06:23.082Z,49.76
2022-09-09T14:09:29.837Z,49.12
2022-09-09T14:12:35.618Z,47.63
2022-09-09T14:15:42.772Z,48.51
2022-09-09T14:18:52.042Z,48.28
2022-09-09T14:21:58.742Z,47.46
2022-09-09T14:25:07.337Z,47.71
2022-09-09T14:28:16.334Z,46.25
2022-09-09T14:31:22.194Z,46.38
2022-09-09T14:34:33.560Z,46.60
2022-09-09T14:37:40.879Z,47.24
2022-09-09T14:40:49.887Z,47.11
2022-09-09T14:43:55.859Z,46.91
2022-09-09T14:47:04.102Z,46.89
2022-09-09T14:50:15.773Z,47.24
2022-09-09T14:53:22.967Z,48.06
2022-09-09T14:56:31.217Z,47.79
2022-09-09T14:59:38.105Z,48.03
2022-09-09T15:02:44.294Z,47.47
2022-09-09T15:05:53.914Z,48.31
2022-09-09T15:09:03.550Z,48.06
2022-09-09T15:12:11.029Z,47.48
2022-09-09T15:15:17.528Z,47.28
2022-09-09T15:18:24.455Z,47.56
2022-09-09T15:21:34.617Z,47.48
2022-09-09T15:24:41.416Z,48.20
2022-09-09T15:27:47.428Z,48.70
2022-09-09T15:30:54.675Z,48.60
2022-09-09T15:34:04.029Z,49.23
2022-09-09T15:37:14.898Z,49.21
2022-09-09T15:40:20.925Z,50.19
2022-09-09T15:43:27.540Z,50.50
2022-09-09T15:46:37.210Z,50.08
2022-09-09T15:49:44.081Z,49.82
2022-09-09T15:52:54.141Z,49.75
2022-09-09T15:56:01.112Z,50.27
2022-09-09T15:59:08.572Z,50.39
2022-09-09T16:02:15.355Z,50.33
2022-09-09T16:05:24.001Z,50.51
2022-09-09T16:08:38.728Z,50.80
2022-09-09T16:11:44.562Z,51.23
2022-09-09T16:14:51.283Z,52.00
2022-09-09T16:17:57.786Z,52.58
2022-09-09T16:21:07.193Z,53.04
2022-09-09T16:24:19.211Z,53.44
2022-09-09T16:27:26.003Z,53.56
2022-09-09T16:30:31.901Z,53.74
2022-09-09T16:33:38.990Z,53.95
2022-09-09T16:36:46.971Z,54.53
2022-09-09T16:39:56.681Z,54.72
2022-09-09T16:43:03.677Z,54.95
2022-09-09T16:46:19.459Z,55.50
2022-09-09T16:49:25.800Z,56.04
2022-09-09T16:52:32.789Z,56.46
2022-09-09T16:55:45.514Z,56.75
2022-09-09T16:58:55.451Z,56.63
2022-09-09T17:02:03.858Z,57.56
2022-09-09T17:05:11.102Z,57.99
2022-09-09T17:08:17.893Z,58.31
2022-09-09T17:11:27.998Z,58.70
2022-09-09T17:14:35.204Z,59.13
2022-09-09T17:17:45.393Z,59.34
2022-09-09T17:20:51.202Z,59.72
2022-09-09T17:23:59.362Z,59.98
2022-09-09T17:27:10.206Z,60.65
2022-09-09T17:30:17.828Z,61.05
2022-09-09T17:33:24.412Z,61.23
2022-09-09T17:36:33.473Z,61.55
2022-09-09T17:39:39.642Z,61.79
2022-09-09T17:42:49.308Z,62.16
2022-09-09T17:45:55.253Z,62.80
2022-09-09T17:49:04.039Z,62.91
2022-09-09T17:52:09.993Z,63.54
2022-09-09T17:55:17.226Z,63.61
2022-09-09T17:58:25.780Z,64.00
2022-09-09T18:01:35.613Z,64.21
2022-09-09T18:04:43.094Z,64.28
2022-09-09T18:07:49.738Z,64.32
2022-09-09T18:10:57.025Z,63.87
2022-09-09T18:14:10.829Z,64.09
2022-09-09T18:17:16.623Z,64.33
2022-09-09T18:20:24.216Z,64.57
2022-09-09T18:23:30.306Z,64.49
2022-09-09T18:26:39.610Z,63.87
2022-09-09T18:29:48.419Z,63.13
2022-09-09T18:32:55.322Z,62.97
2022-09-09T18:36:10.085Z,62.97
2022-09-09T18:39:19.777Z,63.69
2022-09-09T18:42:26.823Z,64.14
2022-09-09T18:45:38.918Z,64.26
2022-09-09T18:48:46.420Z,64.50
2022-09-09T18:51:53.598Z,64.73
2022-09-09T18:54:59.404Z,65.33
2022-09-09T18:58:07.237Z,65.86
2022-09-09T19:01:17.754Z,65.91
2022-09-09T19:04:26.353Z,66.16
2022-09-09T19:07:32.287Z,66.47
2022-09-09T19:10:39.763Z,66.92
2022-09-09T19:13:46.231Z,67.15
2022-09-09T19:16:56.606Z,67.26
2022-09-09T19:20:03.792Z,67.53
2022-09-09T19:23:10.447Z,67.67
2022-09-09T19:26:17.339Z,67.76
2022-09-09T19:29:25.350Z,67.98
2022-09-09T19:32:52.772Z,67.94
2022-09-09T19:36:03.555Z,67.47
2022-09-09T19:39:10.769Z,67.49
2022-09-09T19:42:17.492Z,67.79
2022-09-09T19:45:23.356Z,67.80
2022-09-09T19:48:33.632Z,67.74
2022-09-09T19:51:39.790Z,67.98
2022-09-09T19:54:46.960Z,68.02
2022-09-09T19:57:52.827Z,68.17
2022-09-09T20:00:59.482Z,68.39
2022-09-09T20:04:11.097Z,68.49
2022-09-09T20:07:19.353Z,68.64
2022-09-09T20:10:25.380Z,68.80
2022-09-09T20:13:33.518Z,68.96
2022-09-09T20:16:39.584Z,69.19
2022-09-09T20:19:49.348Z,69.44
2022-09-09T20:22:55.374Z,69.73
2022-09-09T20:26:07.901Z,69.70
2022-09-09T20:29:18.914Z,69.93
2022-09-09T20:32:26.124Z,70.31
2022-09-09T20:35:36.826Z,70.33
2022-09-09T20:38:47.569Z,70.49
2022-09-09T20:41:53.882Z,70.65
2022-09-09T20:45:00.625Z,70.73
2022-09-09T20:48:08.432Z,71.00
2022-09-09T20:51:19.943Z,71.37
2022-09-09T20:54:29.373Z,71.54
2022-09-09T20:57:36.147Z,71.66
2022-09-09T21:00:42.431Z,71.78
2022-09-09T21:03:49.083Z,71.98
2022-09-09T21:06:57.699Z,72.28
2022-09-09T21:10:04.298Z,72.43
2022-09-09T21:13:10.453Z,72.37
2022-09-09T21:16:19.847Z,72.66
2022-09-09T21:19:25.822Z,72.61
2022-09-09T21:22:35.670Z,72.82
2022-09-09T21:25:41.740Z,73.07
2022-09-09T21:28:48.480Z,73.11
2022-09-09T21:31:56.149Z,73.01
2022-09-09T21:35:03.567Z,73.04
2022-09-09T21:38:15.593Z,73.09
2022-09-09T21:41:22.707Z,73.20
2022-09-09T21:44:28.773Z,73.29
2022-09-09T21:47:35.482Z,73.49
2022-09-09T21:50:43.300Z,73.60
2022-09-09T21:53:52.727Z,73.51
2022-09-09T21:56:58.771Z,73.61
2022-09-09T22:00:12.698Z,73.52
2022-09-09T22:03:19.099Z,73.49
2022-09-09T22:06:25.801Z,73.61
2022-09-09T22:09:34.423Z,73.59
2022-09-09T22:12:41.306Z,73.40
2022-09-09T22:15:48.844Z,73.49
2022-09-09T22:18:57.974Z,73.30
2022-09-09T22:22:04.400Z,73.54
2022-09-09T22:25:15.000Z,73.72
2022-09-09T22:28:22.367Z,73.76
2022-09-09T22:31:30.522Z,74.09
2022-09-09T22:34:36.696Z,73.89
2022-09-09T22:37:43.657Z,74.17
2022-09-09T22:40:52.899Z,74.19
2022-09-09T22:43:59.809Z,74.33
2022-09-09T22:47:07.991Z,74.46
2022-09-09T22:50:14.593Z,74.38
2022-09-09T22:53:21.773Z,74.49
2022-09-09T22:56:31.205Z,74.54
2022-09-09T22:59:37.657Z,74.45
2022-09-09T23:02:44.822Z,74.53
2022-09-09T23:05:57.905Z,74.53
2022-09-09T23:09:06.618Z,74.70
2022-09-09T23:12:19.039Z,74.73
2022-09-09T23:15:25.686Z,74.45
2022-09-09T23:18:33.811Z,74.29
2022-09-09T23:21:42.163Z,74.33
2022-09-09T23:24:47.921Z,74.43
2022-09-09T23:27:57.569Z,74.48
2022-09-09T23:31:03.542Z,74.09
2022-09-09T23:34:10.513Z,74.18
2022-09-09T23:37:16.868Z,74.14
2022-09-09T23:40:23.552Z,73.79
2022-09-09T23:43:32.351Z,73.92
2022-09-09T23:46:39.295Z,74.21
2022-09-09T23:49:45.145Z,74.29
2022-09-09T23:52:52.504Z,74.89
2022-09-09T23:55:59.589Z,75.03
2022-09-09T23:59:10.722Z,75.54
